Time;durP1;ratioP1;P1;durP2;ratioP2;P2;SDS_P1;SDS_P2;PMS_P1;PMS_P2;Temp;Humidity;BMP_temperature;BMP_pressure;BME280_temperature;BME280_humidity;BME280_pressure;Samples;Min_cycle;Max_cycle;Signal;HPM_P1;HPM_P2
2021/10/29 00:01:33;;;;;;;;;;;11.80;99.90;;;;;;5071085;28;19912;-81
2021/10/29 00:03:58;;;;;;;;;;;11.80;99.90;;;;;;5076678;28;19920;-83
2021/10/29 00:06:24;;;;;;;;;;;11.80;99.90;;;;;;5076641;28;19916;-83
2021/10/29 00:08:49;;;;;;;;;;;11.70;99.90;;;;;;5060494;28;19982;-82
2021/10/29 00:11:15;;;;;;;;;;;11.70;99.90;;;;;;5055975;28;19964;-82
2021/10/29 00:13:40;;;;;;;;;;;11.70;99.90;;;;;;5053948;28;19975;-78
2021/10/29 00:16:06;;;;;;;;;;;11.60;99.90;;;;;;5044576;28;19916;-81
2021/10/29 00:18:31;;;;;;;;;;;11.60;99.90;;;;;;5050464;28;19913;-84
2021/10/29 00:20:57;;;;;;;;;;;11.60;99.90;;;;;;5050419;28;19917;-81
2021/10/29 00:23:24;;;;;;;;;;;11.60;99.90;;;;;;5063017;28;19916;-81
2021/10/29 00:25:50;;;;;;;;;;;11.50;99.90;;;;;;5049692;28;19928;-81
2021/10/29 00:28:15;;;;;;;;;;;11.50;99.90;;;;;;5063298;28;19912;-81
2021/10/29 00:30:41;;;;;;;;;;;11.50;99.90;;;;;;5061786;28;19920;-82
2021/10/29 00:33:06;;;;;;;;;;;11.50;99.90;;;;;;5047239;28;19914;-81
2021/10/29 00:35:32;;;;;;;;;;;11.50;99.90;;;;;;5052190;28;20300;-83
2021/10/29 00:37:57;;;;;;;;;;;11.50;99.90;;;;;;5046373;28;19920;-82
2021/10/29 00:40:23;;;;;;;;;;;11.50;99.90;;;;;;5043261;28;20340;-82
2021/10/29 00:42:48;;;;;;;;;;;11.40;99.90;;;;;;5048547;28;19920;-82
2021/10/29 00:45:14;;;;;;;;;;;11.40;99.90;;;;;;5047364;28;19917;-82
2021/10/29 00:47:39;;;;;;;;;;;11.50;99.90;;;;;;5033601;28;19913;-82
2021/10/29 00:50:05;;;;;;;;;;;11.40;99.90;;;;;;5035621;28;19921;-81
2021/10/29 00:52:31;;;;;;;;;;;11.40;99.90;;;;;;5033869;28;19913;-81
2021/10/29 00:54:57;;;;;;;;;;;11.40;99.90;;;;;;5036733;28;20293;-82
2021/10/29 00:57:22;;;;;;;;;;;11.40;99.90;;;;;;5035627;28;19917;-83
2021/10/29 00:59:50;;;;;;;;;;;11.40;99.90;;;;;;5049428;28;19913;-81
2021/10/29 01:02:16;;;;;;;;;;;11.40;99.90;;;;;;5041024;28;20388;-81
2021/10/29 01:04:41;;;;;;;;;;;11.30;99.90;;;;;;5043371;28;19913;-81
2021/10/29 01:07:07;;;;;;;;;;;11.20;99.90;;;;;;5043164;28;20012;-82
2021/10/29 01:09:33;;;;;;;;;;;11.20;99.90;;;;;;5052559;28;19913;-82
2021/10/29 01:11:59;;;;;;;;;;;11.10;99.90;;;;;;5047078;28;19913;-81
2021/10/29 01:14:24;;;;;;;;;;;11.10;99.90;;;;;;5048006;28;20415;-83
2021/10/29 01:16:50;;;;;;;;;;;11.00;99.90;;;;;;5055551;28;19958;-83
2021/10/29 01:19:15;;;;;;;;;;;10.90;99.90;;;;;;5039305;28;19913;-83
2021/10/29 01:21:41;;;;;;;;;;;10.80;99.90;;;;;;5064784;28;20400;-82
2021/10/29 01:24:07;;;;;;;;;;;10.80;99.90;;;;;;5072653;28;19919;-83
2021/10/29 01:26:33;;;;;;;;;;;10.70;99.90;;;;;;5063129;28;20288;-82
2021/10/29 01:28:59;;;;;;;;;;;10.70;99.90;;;;;;5063489;28;20285;-82
2021/10/29 01:31:24;;;;;;;;;;;10.60;99.90;;;;;;5060490;28;19938;-83
2021/10/29 01:33:50;;;;;;;;;;;10.60;99.90;;;;;;5063035;28;20003;-83
2021/10/29 01:36:16;;;;;;;;;;;10.60;99.90;;;;;;5064856;28;19913;-82
2021/10/29 01:38:44;;;;;;;;;;;10.50;99.90;;;;;;5056724;28;19916;-82
2021/10/29 01:41:10;;;;;;;;;;;10.50;99.90;;;;;;5067054;28;19913;-84
2021/10/29 01:43:38;;;;;;;;;;;10.50;99.90;;;;;;5042376;28;19999;-83
2021/10/29 01:46:03;;;;;;;;;;;10.50;99.90;;;;;;5075012;28;19920;-83
2021/10/29 01:48:29;;;;;;;;;;;10.50;99.90;;;;;;5058081;28;19920;-83
2021/10/29 01:50:55;;;;;;;;;;;10.40;99.90;;;;;;5064449;28;19920;-84
2021/10/29 01:53:21;;;;;;;;;;;10.50;99.90;;;;;;5069464;28;20320;-83
2021/10/29 01:55:47;;;;;;;;;;;10.40;99.90;;;;;;5061778;28;19912;-84
2021/10/29 01:58:13;;;;;;;;;;;10.40;99.90;;;;;;5071137;28;19916;-82
2021/10/29 02:00:39;;;;;;;;;;;10.40;99.90;;;;;;5061340;28;19959;-82
2021/10/29 02:03:04;;;;;;;;;;;10.40;99.90;;;;;;5072317;28;19913;-82
2021/10/29 02:05:30;;;;;;;;;;;10.40;99.90;;;;;;5072291;28;19916;-83
2021/10/29 02:07:55;;;;;;;;;;;10.40;99.90;;;;;;5061551;28;19927;-81
2021/10/29 02:10:21;;;;;;;;;;;10.40;99.90;;;;;;5079195;28;20365;-82
2021/10/29 02:12:46;;;;;;;;;;;10.40;99.90;;;;;;5076886;28;20007;-82
2021/10/29 02:15:12;;;;;;;;;;;10.50;99.90;;;;;;5077164;28;19917;-82
2021/10/29 02:17:37;;;;;;;;;;;10.50;99.90;;;;;;5065557;28;19959;-82
2021/10/29 02:20:04;;;;;;;;;;;10.50;99.90;;;;;;5058151;28;19927;-82
2021/10/29 02:22:30;;;;;;;;;;;10.50;99.90;;;;;;5067077;28;19918;-81
2021/10/29 02:24:55;;;;;;;;;;;10.50;99.90;;;;;;5076121;28;20351;-82
2021/10/29 02:27:21;;;;;;;;;;;10.60;99.90;;;;;;5071718;28;20292;-81
2021/10/29 02:29:46;;;;;;;;;;;10.60;99.90;;;;;;5072176;28;19990;-82
2021/10/29 02:32:12;;;;;;;;;;;10.60;99.90;;;;;;5069326;28;19924;-83
2021/10/29 02:34:37;;;;;;;;;;;10.60;99.90;;;;;;5076151;28;19917;-83
2021/10/29 02:37:03;;;;;;;;;;;10.60;99.90;;;;;;5069180;28;19975;-83
2021/10/29 02:39:28;;;;;;;;;;;10.50;99.90;;;;;;5077111;28;19955;-82
2021/10/29 02:41:54;;;;;;;;;;;10.60;99.90;;;;;;5075941;28;20011;-82
2021/10/29 02:44:19;;;;;;;;;;;10.60;99.90;;;;;;5038652;28;19913;-82
2021/10/29 02:46:45;;;;;;;;;;;10.60;99.90;;;;;;5047192;28;19917;-82
2021/10/29 02:49:10;;;;;;;;;;;10.50;99.90;;;;;;5074515;28;20377;-82
2021/10/29 02:51:36;;;;;;;;;;;10.50;99.90;;;;;;5076087;28;19999;-82
2021/10/29 02:54:01;;;;;;;;;;;10.50;99.90;;;;;;5075896;28;20003;-81
2021/10/29 02:56:27;;;;;;;;;;;10.50;99.90;;;;;;5070103;28;19976;-81
2021/10/29 02:58:53;;;;;;;;;;;10.60;99.90;;;;;;5074773;28;19961;-80
2021/10/29 03:01:18;;;;;;;;;;;10.60;99.90;;;;;;5065054;28;20030;-82
2021/10/29 03:03:44;;;;;;;;;;;10.60;99.90;;;;;;5073615;28;19912;-82
2021/10/29 03:06:09;;;;;;;;;;;10.70;99.90;;;;;;5076245;28;19916;-83
2021/10/29 03:08:35;;;;;;;;;;;10.70;99.90;;;;;;5076516;28;20305;-82
2021/10/29 03:11:00;;;;;;;;;;;10.70;99.90;;;;;;5074431;28;20383;-82
2021/10/29 03:13:26;;;;;;;;;;;10.70;99.90;;;;;;5074998;28;20003;-83
2021/10/29 03:15:52;;;;;;;;;;;10.70;99.90;;;;;;5074275;28;19959;-82
2021/10/29 03:18:17;;;;;;;;;;;10.70;99.90;;;;;;5076751;28;19940;-82
2021/10/29 03:20:43;;;;;;;;;;;10.70;99.90;;;;;;5056447;28;19967;-81
2021/10/29 03:23:09;;;;;;;;;;;10.70;99.90;;;;;;5040969;28;20004;-82
2021/10/29 03:25:34;;;;;;;;;;;10.70;99.90;;;;;;5054656;28;19976;-82
2021/10/29 03:28:01;;;;;;;;;;;10.80;99.90;;;;;;5067863;28;20392;-82
2021/10/29 03:30:26;;;;;;;;;;;10.70;99.90;;;;;;5075344;28;20041;-82
2021/10/29 03:32:53;;;;;;;;;;;10.70;99.90;;;;;;5063574;28;20404;-83
2021/10/29 03:35:20;;;;;;;;;;;10.80;99.90;;;;;;5074483;28;19912;-82
2021/10/29 03:46:16;;;;;;;;;;;10.70;99.90;;;;;;5073574;28;19923;-83
2021/10/29 03:48:54;;;;;;;;;;;10.70;99.90;;;;;;5074032;28;19924;-82
2021/10/29 03:51:35;;;;;;;;;;;10.70;99.90;;;;;;5051417;28;19920;-82
2021/10/29 03:54:50;;;;;;;;;;;10.70;99.90;;;;;;5072765;28;19912;-82
2021/10/29 03:59:20;;;;;;;;;;;10.60;99.90;;;;;;5056850;28;19912;-83
2021/10/29 04:01:46;;;;;;;;;;;10.70;99.90;;;;;;5069382;28;19912;-83
2021/10/29 04:04:14;;;;;;;;;;;10.60;99.90;;;;;;5072089;28;19939;-83
2021/10/29 04:06:40;;;;;;;;;;;10.60;99.90;;;;;;5074273;28;19917;-83
2021/10/29 04:09:05;;;;;;;;;;;10.70;99.90;;;;;;5062715;28;19924;-83
2021/10/29 04:11:38;;;;;;;;;;;10.70;99.90;;;;;;5067136;28;19913;-83
2021/10/29 04:14:07;;;;;;;;;;;10.70;99.90;;;;;;5075182;28;19920;-82
2021/10/29 04:16:36;;;;;;;;;;;10.70;99.90;;;;;;5073915;28;20007;-82
2021/10/29 04:19:05;;;;;;;;;;;10.70;99.90;;;;;;5070170;28;19916;-81
2021/10/29 04:21:31;;;;;;;;;;;10.70;99.90;;;;;;5042597;28;19996;-82
2021/10/29 04:23:56;;;;;;;;;;;10.70;99.90;;;;;;5053092;28;19913;-83
2021/10/29 04:26:22;;;;;;;;;;;10.80;99.90;;;;;;5065758;28;20023;-83
2021/10/29 04:28:53;;;;;;;;;;;10.80;99.90;;;;;;5058804;28;19970;-83
2021/10/29 04:31:22;;;;;;;;;;;10.80;99.90;;;;;;5070183;28;20396;-81
2021/10/29 04:33:48;;;;;;;;;;;10.80;99.90;;;;;;5073577;28;20342;-82
2021/10/29 04:36:14;;;;;;;;;;;10.70;99.90;;;;;;5074765;28;19912;-82
2021/10/29 04:38:39;;;;;;;;;;;10.80;99.90;;;;;;5072743;28;19916;-83
2021/10/29 04:41:05;;;;;;;;;;;10.70;99.90;;;;;;5069016;28;19913;-83
2021/10/29 04:43:30;;;;;;;;;;;10.70;99.90;;;;;;5053104;28;19999;-83
2021/10/29 04:45:56;;;;;;;;;;;10.80;99.90;;;;;;5068675;28;19927;-83
2021/10/29 04:48:21;;;;;;;;;;;10.80;99.90;;;;;;5073409;28;20419;-82
2021/10/29 04:50:47;;;;;;;;;;;10.90;99.90;;;;;;5073415;28;19917;-82
2021/10/29 04:53:12;;;;;;;;;;;10.80;99.90;;;;;;5072339;28;19912;-81
2021/10/29 04:55:39;;;;;;;;;;;10.80;99.90;;;;;;5063319;28;19920;-82
2021/10/29 04:58:06;;;;;;;;;;;10.80;99.90;;;;;;5070550;28;20015;-83
2021/10/29 05:00:32;;;;;;;;;;;10.80;99.90;;;;;;5072088;28;19912;-82
2021/10/29 05:02:58;;;;;;;;;;;10.80;99.90;;;;;;5072865;28;20273;-81
2021/10/29 05:05:24;;;;;;;;;;;10.80;99.90;;;;;;5073463;28;20081;-83
2021/10/29 05:07:49;;;;;;;;;;;10.80;99.90;;;;;;5066460;28;19940;-83
2021/10/29 05:10:15;;;;;;;;;;;10.80;99.90;;;;;;5054118;28;19998;-83
2021/10/29 05:12:41;;;;;;;;;;;10.80;99.90;;;;;;5062171;28;19920;-84
2021/10/29 05:15:06;;;;;;;;;;;10.80;99.90;;;;;;5073926;28;19912;-82
2021/10/29 05:17:32;;;;;;;;;;;10.80;99.90;;;;;;5070940;28;19917;-83
2021/10/29 05:19:57;;;;;;;;;;;10.80;99.90;;;;;;5068510;28;19916;-83
2021/10/29 05:22:23;;;;;;;;;;;10.80;99.90;;;;;;5072064;28;19913;-83
2021/10/29 05:24:48;;;;;;;;;;;10.70;99.90;;;;;;5070182;28;20369;-83
2021/10/29 05:27:14;;;;;;;;;;;10.80;99.90;;;;;;5073616;28;19912;-83
2021/10/29 05:29:39;;;;;;;;;;;10.70;99.90;;;;;;5066460;28;19948;-83
2021/10/29 05:32:05;;;;;;;;;;;10.80;99.90;;;;;;5058461;28;19913;-84
2021/10/29 05:34:30;;;;;;;;;;;10.80;99.90;;;;;;5059230;28;20287;-82
2021/10/29 05:36:56;;;;;;;;;;;10.80;99.90;;;;;;5057924;28;19913;-83
2021/10/29 05:39:22;;;;;;;;;;;10.80;99.90;;;;;;5074048;28;20288;-82
2021/10/29 05:41:49;;;;;;;;;;;10.80;99.90;;;;;;5070860;28;19974;-83
2021/10/29 05:44:16;;;;;;;;;;;10.80;99.90;;;;;;5075963;28;19919;-83
2021/10/29 05:46:43;;;;;;;;;;;10.80;99.90;;;;;;5072699;28;19940;-82
2021/10/29 05:49:13;;;;;;;;;;;10.80;99.90;;;;;;5073265;28;20289;-83
2021/10/29 05:51:48;;;;;;;;;;;10.80;99.90;;;;;;5067011;28;19925;-83
2021/10/29 05:57:02;;;;;;;;;;;10.80;99.90;;;;;;5062526;28;19913;-82
2021/10/29 05:59:28;;;;;;;;;;;10.80;99.90;;;;;;5056103;28;19952;-82
2021/10/29 06:01:54;;;;;;;;;;;10.90;99.90;;;;;;5052302;28;20004;-83
2021/10/29 06:04:19;;;;;;;;;;;10.80;99.90;;;;;;5050547;28;20349;-79
2021/10/29 06:06:45;;;;;;;;;;;10.90;99.90;;;;;;5057137;28;20008;-81
2021/10/29 06:09:11;;;;;;;;;;;10.90;99.90;;;;;;5057994;28;19913;-81
2021/10/29 06:11:37;;;;;;;;;;;10.90;99.90;;;;;;5068837;28;19921;-82
2021/10/29 06:14:02;;;;;;;;;;;10.90;99.90;;;;;;5039247;28;19917;-82
2021/10/29 06:16:29;;;;;;;;;;;11.00;99.90;;;;;;5069160;28;20282;-81
2021/10/29 06:18:54;;;;;;;;;;;11.00;99.90;;;;;;5056941;28;19975;-82
2021/10/29 06:21:30;;;;;;;;;;;11.00;99.90;;;;;;5051988;28;19913;-82
2021/10/29 06:24:01;;;;;;;;;;;11.00;99.90;;;;;;5044360;28;19917;-82
2021/10/29 06:26:38;;;;;;;;;;;11.00;99.90;;;;;;5047761;28;20557;-82
2021/10/29 06:29:03;;;;;;;;;;;11.10;99.90;;;;;;5054917;28;19927;-82
2021/10/29 06:31:29;;;;;;;;;;;11.10;99.90;;;;;;5057973;28;20397;-82
2021/10/29 06:33:54;;;;;;;;;;;11.10;99.90;;;;;;5046264;28;19921;-81
2021/10/29 06:36:20;;;;;;;;;;;11.10;99.90;;;;;;5051636;28;20404;-83
2021/10/29 06:38:45;;;;;;;;;;;11.00;99.90;;;;;;5045020;28;19960;-82
2021/10/29 06:41:11;;;;;;;;;;;11.10;99.90;;;;;;5057880;28;19913;-83
2021/10/29 06:43:42;;;;;;;;;;;11.10;99.90;;;;;;5083439;28;19912;-83
2021/10/29 07:01:47;;;;;;;;;;;11.30;99.90;;;;;;5076800;28;19919;-81
2021/10/29 07:42:30;;;;;;;;;;;12.20;99.90;;;;;;5057292;28;19921;-83
2021/10/29 07:44:55;;;;;;;;;;;12.30;99.90;;;;;;5071260;28;19908;-81
2021/10/29 07:47:21;;;;;;;;;;;12.40;99.90;;;;;;5070176;28;19901;-80
2021/10/29 07:49:46;;;;;;;;;;;12.50;99.90;;;;;;5077578;28;19929;-81
2021/10/29 07:52:14;;;;;;;;;;;12.40;99.90;;;;;;5077000;28;19980;-84
2021/10/29 07:54:44;;;;;;;;;;;12.50;99.90;;;;;;5071788;28;20372;-83
2021/10/29 07:57:11;;;;;;;;;;;12.60;99.90;;;;;;5081992;28;19910;-82
2021/10/29 07:59:36;;;;;;;;;;;12.60;99.90;;;;;;5098422;28;19905;-80
2021/10/29 08:02:02;;;;;;;;;;;12.70;99.90;;;;;;5092859;28;19912;-79
2021/10/29 08:04:27;;;;;;;;;;;12.70;99.90;;;;;;5070114;28;19956;-83
2021/10/29 08:06:52;;;;;;;;;;;12.80;99.90;;;;;;5057362;28;20039;-82
2021/10/29 08:09:19;;;;;;;;;;;12.80;99.90;;;;;;5069559;28;19958;-82
2021/10/29 08:11:44;;;;;;;;;;;12.90;99.90;;;;;;5068847;28;20337;-83
2021/10/29 08:14:10;;;;;;;;;;;12.90;99.90;;;;;;5059165;28;19927;-83
2021/10/29 08:16:35;;;;;;;;;;;13.00;99.90;;;;;;5058338;28;19963;-82
2021/10/29 08:19:02;;;;;;;;;;;12.90;99.90;;;;;;5057229;28;19954;-83
2021/10/29 08:21:27;;;;;;;;;;;13.00;99.90;;;;;;5056026;28;19912;-84
2021/10/29 08:23:53;;;;;;;;;;;13.00;99.90;;;;;;5058040;28;19909;-85
2021/10/29 08:26:18;;;;;;;;;;;13.00;99.90;;;;;;5057838;28;19974;-83
2021/10/29 08:28:44;;;;;;;;;;;13.10;99.90;;;;;;5059925;28;19912;-84
2021/10/29 08:31:10;;;;;;;;;;;13.20;99.90;;;;;;5058791;28;19913;-81
2021/10/29 08:33:35;;;;;;;;;;;13.20;99.90;;;;;;5064079;28;19912;-85
2021/10/29 08:36:02;;;;;;;;;;;13.30;99.90;;;;;;5061235;28;19913;-85
2021/10/29 08:38:29;;;;;;;;;;;13.30;99.90;;;;;;5062107;28;19904;-83
2021/10/29 08:40:55;;;;;;;;;;;13.50;99.90;;;;;;5094558;28;19907;-83
2021/10/29 08:43:20;;;;;;;;;;;13.60;99.90;;;;;;5089364;28;19925;-83
2021/10/29 08:45:47;;;;;;;;;;;13.60;99.90;;;;;;5076943;28;19929;-82
2021/10/29 08:48:12;;;;;;;;;;;13.60;99.90;;;;;;5067659;28;19916;-84
2021/10/29 08:50:38;;;;;;;;;;;13.70;99.90;;;;;;5079093;28;19905;-82
2021/10/29 08:53:03;;;;;;;;;;;13.70;99.90;;;;;;5073170;28;19924;-83
2021/10/29 08:55:32;;;;;;;;;;;13.70;99.90;;;;;;5064800;28;20011;-81
2021/10/29 08:58:01;;;;;;;;;;;13.70;99.90;;;;;;5062710;28;20409;-85
2021/10/29 09:00:29;;;;;;;;;;;13.70;99.90;;;;;;5075453;28;19928;-81
2021/10/29 09:03:24;;;;;;;;;;;13.80;99.90;;;;;;5088132;28;19976;-82
2021/10/29 09:05:53;;;;;;;;;;;13.90;99.90;;;;;;5073127;28;19921;-83
2021/10/29 09:16:34;;;;;;;;;;;13.90;99.90;;;;;;5097944;28;19939;-82
2021/10/29 09:33:05;;;;;;;;;;;14.50;99.90;;;;;;5073103;28;19924;-83
2021/10/29 09:35:33;;;;;;;;;;;14.70;99.90;;;;;;5054198;28;20431;-83
2021/10/29 09:38:06;;;;;;;;;;;14.90;99.90;;;;;;5081532;28;19919;-88
2021/10/29 09:40:33;;;;;;;;;;;15.00;99.90;;;;;;5079253;28;19918;-87
2021/10/29 09:43:01;;;;;;;;;;;15.00;99.90;;;;;;5069265;28;19919;-87
2021/10/29 09:45:28;;;;;;;;;;;15.10;99.90;;;;;;5073280;28;19980;-86
2021/10/29 09:48:18;;;;;;;;;;;15.20;99.90;;;;;;5073230;28;20004;-83
2021/10/29 09:50:50;;;;;;;;;;;15.30;99.90;;;;;;5057026;28;19920;-87
2021/10/29 09:58:55;;;;;;;;;;;15.40;99.90;;;;;;5068429;28;19908;-85
2021/10/29 10:01:25;;;;;;;;;;;15.50;99.90;;;;;;5075752;28;19901;-82
2021/10/29 10:03:51;;;;;;;;;;;15.50;99.90;;;;;;5086273;28;19930;-84
2021/10/29 10:06:21;;;;;;;;;;;15.50;99.90;;;;;;5098440;28;19963;-84
2021/10/29 10:08:47;;;;;;;;;;;15.60;99.90;;;;;;5098115;28;19943;-82
2021/10/29 10:11:14;;;;;;;;;;;15.40;99.90;;;;;;5095933;28;19912;-81
2021/10/29 10:13:41;;;;;;;;;;;15.30;99.90;;;;;;5085724;28;19905;-85
2021/10/29 10:16:06;;;;;;;;;;;15.20;99.90;;;;;;5086312;28;19939;-83
2021/10/29 10:18:32;;;;;;;;;;;15.20;99.90;;;;;;5085366;28;19959;-81
2021/10/29 10:20:59;;;;;;;;;;;15.20;99.90;;;;;;5077054;28;19919;-83
2021/10/29 10:23:30;;;;;;;;;;;15.20;99.90;;;;;;5075905;28;19996;-81
2021/10/29 10:26:14;;;;;;;;;;;15.20;99.90;;;;;;5075399;28;19980;-84
2021/10/29 10:45:56;;;;;;;;;;;15.70;99.90;;;;;;5054763;28;19923;-83
2021/10/29 10:48:25;;;;;;;;;;;16.00;99.90;;;;;;5060933;28;19974;-84
2021/10/29 10:50:55;;;;;;;;;;;16.10;99.90;;;;;;5063224;28;20384;-85
2021/10/29 10:53:25;;;;;;;;;;;16.10;99.90;;;;;;5058641;28;20288;-85
2021/10/29 10:58:42;;;;;;;;;;;16.40;99.90;;;;;;5050039;28;19913;-86
2021/10/29 11:01:13;;;;;;;;;;;16.40;99.90;;;;;;5070202;28;19928;-85
2021/10/29 11:04:10;;;;;;;;;;;16.40;99.90;;;;;;5077341;28;19964;-85
2021/10/29 11:07:02;;;;;;;;;;;16.50;99.90;;;;;;5061309;28;19962;-82
2021/10/29 11:12:22;;;;;;;;;;;16.60;99.90;;;;;;5049577;28;19940;-84
2021/10/29 11:15:05;;;;;;;;;;;16.70;99.90;;;;;;5062633;28;19912;-83
2021/10/29 11:17:47;;;;;;;;;;;16.80;99.90;;;;;;5060034;28;19920;-86
2021/10/29 11:20:31;;;;;;;;;;;16.90;99.90;;;;;;5047452;28;20403;-85
2021/10/29 11:23:02;;;;;;;;;;;17.00;99.90;;;;;;5057652;28;19913;-85
2021/10/29 11:25:46;;;;;;;;;;;17.10;99.90;;;;;;5059107;28;19921;-86
2021/10/29 11:28:11;;;;;;;;;;;17.20;99.90;;;;;;5060402;28;20328;-85
2021/10/29 11:30:40;;;;;;;;;;;17.30;99.90;;;;;;5048647;28;19913;-84
2021/10/29 11:33:07;;;;;;;;;;;17.40;99.90;;;;;;5058997;28;20322;-85
2021/10/29 11:35:32;;;;;;;;;;;17.40;99.90;;;;;;5056482;28;19919;-85
2021/10/29 11:37:58;;;;;;;;;;;17.40;99.90;;;;;;5047392;28;20321;-85
2021/10/29 11:40:23;;;;;;;;;;;17.40;99.90;;;;;;5054497;28;19920;-83
2021/10/29 11:42:53;;;;;;;;;;;17.40;99.90;;;;;;5042336;28;19966;-86
2021/10/29 11:45:28;;;;;;;;;;;17.50;99.90;;;;;;5049098;28;19939;-85
2021/10/29 11:47:54;;;;;;;;;;;17.50;99.90;;;;;;5068938;28;19943;-84
2021/10/29 11:50:23;;;;;;;;;;;17.50;99.90;;;;;;5064104;28;19913;-82
2021/10/29 11:52:48;;;;;;;;;;;17.60;99.90;;;;;;5057699;28;19963;-81
2021/10/29 11:55:18;;;;;;;;;;;17.60;99.90;;;;;;5056860;28;20280;-87
2021/10/29 11:57:51;;;;;;;;;;;17.50;99.90;;;;;;5057109;28;19913;-86
2021/10/29 12:00:35;;;;;;;;;;;17.70;99.90;;;;;;5056055;28;19972;-92
2021/10/29 12:06:00;;;;;;;;;;;17.70;99.90;;;;;;5056957;28;19924;-85
2021/10/29 12:08:30;;;;;;;;;;;17.70;99.90;;;;;;5066420;28;20003;-87
2021/10/29 12:11:00;;;;;;;;;;;17.60;99.90;;;;;;5064431;28;19919;-86
2021/10/29 12:13:26;;;;;;;;;;;17.70;99.90;;;;;;5075114;28;20310;-82
2021/10/29 12:15:52;;;;;;;;;;;17.70;99.90;;;;;;5074991;28;19964;-87
2021/10/29 12:18:22;;;;;;;;;;;17.80;99.90;;;;;;5074055;28;20451;-86
2021/10/29 12:20:50;;;;;;;;;;;17.90;99.90;;;;;;5067194;28;19912;-87
2021/10/29 12:23:26;;;;;;;;;;;17.90;99.90;;;;;;5055377;28;20055;-85
2021/10/29 12:26:09;;;;;;;;;;;18.00;99.90;;;;;;5054923;28;19929;-88
2021/10/29 12:28:38;;;;;;;;;;;18.10;99.90;;;;;;5055736;28;19913;-84
2021/10/29 13:03:47;;;;;;;;;;;18.40;99.90;;;;;;5059747;28;19919;-86
2021/10/29 13:06:13;;;;;;;;;;;18.50;99.90;;;;;;5070152;28;19917;-86
2021/10/29 13:08:39;;;;;;;;;;;18.60;99.90;;;;;;5054987;28;19909;-85
2021/10/29 13:11:06;;;;;;;;;;;18.60;99.90;;;;;;5057131;28;19999;-85
2021/10/29 13:13:54;;;;;;;;;;;18.60;99.90;;;;;;5059531;28;20408;-91
2021/10/29 13:16:20;;;;;;;;;;;18.70;99.90;;;;;;5057047;28;20377;-85
2021/10/29 13:34:48;;;;;;;;;;;19.20;99.90;;;;;;5054385;28;19958;-83
2021/10/29 13:56:28;;;;;;;;;;;18.90;99.90;;;;;;5053960;28;19966;-82
2021/10/29 14:16:27;;;;;;;;;;;18.20;99.90;;;;;;5058582;28;19920;-83
2021/10/29 14:29:00;;;;;;;;;;;18.30;99.90;;;;;;5057437;28;19935;-81
2021/10/29 14:31:39;;;;;;;;;;;18.20;99.90;;;;;;5054041;28;19980;-82
2021/10/29 14:44:31;;;;;;;;;;;18.00;99.90;;;;;;5057649;28;19913;-83
2021/10/29 14:47:06;;;;;;;;;;;18.00;99.90;;;;;;5057389;28;19924;-83
2021/10/29 14:49:45;;;;;;;;;;;18.00;99.90;;;;;;5056147;28;20416;-83
2021/10/29 14:52:31;;;;;;;;;;;17.90;99.90;;;;;;5055684;28;20103;-83
2021/10/29 15:05:55;;;;;;;;;;;17.90;99.90;;;;;;5038085;28;19924;-83
2021/10/29 15:27:30;;;;;;;;;;;17.50;99.90;;;;;;5053270;28;19928;-82
2021/10/29 15:45:48;;;;;;;;;;;16.80;99.90;;;;;;5054848;28;19917;-83
2021/10/29 15:48:18;;;;;;;;;;;16.80;99.90;;;;;;5054604;28;19968;-82
2021/10/29 15:50:44;;;;;;;;;;;16.90;99.90;;;;;;5054093;28;19909;-81
2021/10/29 15:53:12;;;;;;;;;;;16.80;99.90;;;;;;5053048;28;19919;-83
2021/10/29 15:58:14;;;;;;;;;;;16.80;99.90;;;;;;5043833;28;19913;-83
2021/10/29 16:01:16;;;;;;;;;;;16.80;99.90;;;;;;5037896;28;19920;-81
2021/10/29 16:17:13;;;;;;;;;;;16.60;99.90;;;;;;5054784;28;19924;-83
2021/10/29 16:19:39;;;;;;;;;;;16.60;99.90;;;;;;5054590;28;20042;-83
2021/10/29 16:22:22;;;;;;;;;;;16.70;99.90;;;;;;5055123;28;19940;-82
2021/10/29 16:30:10;;;;;;;;;;;16.50;99.90;;;;;;5051548;28;19913;-84
2021/10/29 16:35:17;;;;;;;;;;;16.40;99.90;;;;;;5061744;28;19943;-82
2021/10/29 16:37:44;;;;;;;;;;;16.40;99.90;;;;;;5071346;28;19912;-83
2021/10/29 16:40:10;;;;;;;;;;;16.40;99.90;;;;;;5053909;28;20376;-83
2021/10/29 16:42:37;;;;;;;;;;;16.30;99.90;;;;;;5053989;28;19916;-81
2021/10/29 16:45:03;;;;;;;;;;;16.30;99.90;;;;;;5052015;28;20027;-83
2021/10/29 16:47:28;;;;;;;;;;;16.20;99.90;;;;;;5053844;28;20396;-82
2021/10/29 16:49:54;;;;;;;;;;;16.20;99.90;;;;;;5038245;28;19953;-81
2021/10/29 16:52:19;;;;;;;;;;;16.10;99.90;;;;;;5043779;28;19909;-83
2021/10/29 16:54:45;;;;;;;;;;;16.10;99.90;;;;;;5043433;28;20406;-84
2021/10/29 16:57:10;;;;;;;;;;;16.10;99.90;;;;;;5053407;28;19915;-82
2021/10/29 16:59:36;;;;;;;;;;;16.10;99.90;;;;;;5044355;28;20335;-83
2021/10/29 17:02:01;;;;;;;;;;;16.10;99.90;;;;;;5035413;28;19979;-81
2021/10/29 17:04:27;;;;;;;;;;;16.10;99.90;;;;;;5048901;28;19916;-81
2021/10/29 17:06:52;;;;;;;;;;;16.00;99.90;;;;;;5050176;28;19923;-82
2021/10/29 17:09:18;;;;;;;;;;;15.90;99.90;;;;;;5047580;28;20327;-83
2021/10/29 17:11:43;;;;;;;;;;;15.90;99.90;;;;;;5051464;28;19913;-83
2021/10/29 17:14:09;;;;;;;;;;;15.90;99.90;;;;;;5052793;28;19913;-83
2021/10/29 17:16:35;;;;;;;;;;;15.80;99.90;;;;;;5051090;28;20375;-83
2021/10/29 17:19:00;;;;;;;;;;;15.70;99.90;;;;;;5051120;28;19920;-82
2021/10/29 17:21:26;;;;;;;;;;;15.70;99.90;;;;;;5049224;28;19913;-83
2021/10/29 17:23:51;;;;;;;;;;;15.60;99.90;;;;;;5051034;28;19970;-82
2021/10/29 17:26:17;;;;;;;;;;;15.70;99.90;;;;;;5051855;28;19928;-82
2021/10/29 17:28:43;;;;;;;;;;;15.60;99.90;;;;;;5045487;28;19917;-83
2021/10/29 17:31:09;;;;;;;;;;;15.50;99.90;;;;;;5051805;28;19935;-82
2021/10/29 17:33:34;;;;;;;;;;;15.50;99.90;;;;;;5041340;28;19917;-82
2021/10/29 17:36:00;;;;;;;;;;;15.50;99.90;;;;;;5048232;28;19916;-82
2021/10/29 17:38:25;;;;;;;;;;;15.40;99.90;;;;;;5049970;28;19912;-83
2021/10/29 17:40:51;;;;;;;;;;;15.40;99.90;;;;;;5047533;28;19917;-80
2021/10/29 17:43:16;;;;;;;;;;;15.40;99.90;;;;;;5047318;28;19921;-82
2021/10/29 17:45:44;;;;;;;;;;;15.40;99.90;;;;;;5041322;28;19924;-82
2021/10/29 17:48:09;;;;;;;;;;;15.40;99.90;;;;;;5042345;28;19913;-82
2021/10/29 17:50:35;;;;;;;;;;;15.30;99.90;;;;;;5050537;28;19913;-81
2021/10/29 17:53:00;;;;;;;;;;;15.30;99.90;;;;;;5049660;28;20349;-81
2021/10/29 17:55:30;;;;;;;;;;;15.30;99.90;;;;;;5049073;28;19912;-79
2021/10/29 17:57:56;;;;;;;;;;;15.30;99.90;;;;;;5046236;28;20005;-82
2021/10/29 18:00:22;;;;;;;;;;;15.30;99.90;;;;;;5051740;28;19983;-82
2021/10/29 18:02:47;;;;;;;;;;;15.30;99.90;;;;;;5047548;28;20269;-82
2021/10/29 18:05:16;;;;;;;;;;;15.30;99.90;;;;;;5049319;28;19920;-82
2021/10/29 18:07:41;;;;;;;;;;;15.30;99.90;;;;;;5051138;28;19912;-82
2021/10/29 18:10:07;;;;;;;;;;;15.30;99.90;;;;;;5048007;28;19936;-81
2021/10/29 18:12:33;;;;;;;;;;;15.30;99.90;;;;;;5044722;28;19917;-82
2021/10/29 18:14:58;;;;;;;;;;;15.30;99.90;;;;;;5050058;28;19921;-81
2021/10/29 18:17:24;;;;;;;;;;;15.20;99.90;;;;;;5045235;28;19920;-81
2021/10/29 18:19:50;;;;;;;;;;;15.20;99.90;;;;;;5050332;28;20015;-83
2021/10/29 18:22:15;;;;;;;;;;;15.20;99.90;;;;;;5051845;28;19913;-83
2021/10/29 18:24:41;;;;;;;;;;;15.10;99.90;;;;;;5048584;28;19922;-79
2021/10/29 18:27:08;;;;;;;;;;;15.20;99.90;;;;;;5050593;28;19929;-82
2021/10/29 18:29:34;;;;;;;;;;;15.20;99.90;;;;;;5046699;28;19960;-82
2021/10/29 18:32:02;;;;;;;;;;;15.20;99.90;;;;;;5049948;28;21615;-80
2021/10/29 18:34:28;;;;;;;;;;;15.20;99.90;;;;;;5048799;28;19936;-81
2021/10/29 18:36:53;;;;;;;;;;;15.20;99.90;;;;;;5051911;28;19913;-81
2021/10/29 18:39:19;;;;;;;;;;;15.10;99.90;;;;;;5049732;28;19909;-80
2021/10/29 18:41:45;;;;;;;;;;;15.20;99.90;;;;;;5048487;28;19913;-82
2021/10/29 18:44:10;;;;;;;;;;;15.10;99.90;;;;;;5051434;28;19916;-81
2021/10/29 18:46:37;;;;;;;;;;;15.10;99.90;;;;;;5048815;28;20007;-81
2021/10/29 18:49:03;;;;;;;;;;;15.10;99.90;;;;;;5051348;28;20073;-81
2021/10/29 18:51:29;;;;;;;;;;;15.00;99.90;;;;;;5054599;28;19920;-80
2021/10/29 18:53:56;;;;;;;;;;;15.00;99.90;;;;;;5053454;28;19928;-81
2021/10/29 18:56:22;;;;;;;;;;;15.00;99.90;;;;;;5053150;28;19995;-80
2021/10/29 18:58:48;;;;;;;;;;;15.00;99.90;;;;;;5049913;28;20326;-79
2021/10/29 19:01:13;;;;;;;;;;;14.90;99.90;;;;;;5055280;28;20050;-81
2021/10/29 19:03:39;;;;;;;;;;;15.00;99.90;;;;;;5056361;28;19991;-81
2021/10/29 19:06:05;;;;;;;;;;;14.90;99.90;;;;;;5051583;28;19917;-82
2021/10/29 19:08:31;;;;;;;;;;;14.90;99.90;;;;;;5049816;28;19924;-81
2021/10/29 19:10:56;;;;;;;;;;;14.80;99.90;;;;;;5038843;28;19920;-81
2021/10/29 19:13:22;;;;;;;;;;;14.80;99.90;;;;;;5047889;28;19913;-80
2021/10/29 19:15:47;;;;;;;;;;;14.80;99.90;;;;;;5051280;28;19919;-81